sensor_id;sensor_type;location;lat;lon;timestamp;P1;durP1;ratioP1;P2;durP2;ratioP2
62509;SDS011;48558;48.242;11.654;2023-04-03T00:02:23;4.90;;;3.25;;
62509;SDS011;48558;48.242;11.654;2023-04-03T00:06:36;3.65;;;3.35;;
62509;SDS011;48558;48.242;11.654;2023-04-03T00:10:49;5.15;;;3.22;;
62509;SDS011;48558;48.242;11.654;2023-04-03T00:15:01;6.85;;;4.22;;
62509;SDS011;48558;48.242;11.654;2023-04-03T00:19:14;3.33;;;3.00;;
62509;SDS011;48558;48.242;11.654;2023-04-03T00:23:27;3.03;;;2.72;;
62509;SDS011;48558;48.242;11.654;2023-04-03T00:27:40;3.67;;;3.35;;
62509;SDS011;48558;48.242;11.654;2023-04-03T00:31:52;3.80;;;3.15;;
62509;SDS011;48558;48.242;11.654;2023-04-03T00:36:08;3.28;;;2.95;;
62509;SDS011;48558;48.242;11.654;2023-04-03T00:40:24;3.45;;;3.15;;
62509;SDS011;48558;48.242;11.654;2023-04-03T00:48:51;8.93;;;3.20;;
62509;SDS011;48558;48.242;11.654;2023-04-03T00:53:03;3.17;;;2.00;;
62509;SDS011;48558;48.242;11.654;2023-04-03T00:57:18;4.63;;;3.22;;
62509;SDS011;48558;48.242;11.654;2023-04-03T01:01:31;3.75;;;3.38;;
62509;SDS011;48558;48.242;11.654;2023-04-03T01:05:43;3.70;;;2.53;;
62509;SDS011;48558;48.242;11.654;2023-04-03T01:09:57;3.00;;;2.65;;
62509;SDS011;48558;48.242;11.654;2023-04-03T01:14:13;3.75;;;2.85;;
62509;SDS011;48558;48.242;11.654;2023-04-03T01:18:25;3.10;;;2.83;;
62509;SDS011;48558;48.242;11.654;2023-04-03T01:22:41;3.90;;;3.38;;
62509;SDS011;48558;48.242;11.654;2023-04-03T01:27:09;5.97;;;3.15;;
62509;SDS011;48558;48.242;11.654;2023-04-03T01:35:59;2.58;;;2.38;;
62509;SDS011;48558;48.242;11.654;2023-04-03T01:40:12;2.97;;;2.78;;
62509;SDS011;48558;48.242;11.654;2023-04-03T01:44:25;4.00;;;2.88;;
62509;SDS011;48558;48.242;11.654;2023-04-03T01:48:37;3.53;;;2.80;;
62509;SDS011;48558;48.242;11.654;2023-04-03T01:52:50;2.70;;;2.45;;
62509;SDS011;48558;48.242;11.654;2023-04-03T01:57:02;1.88;;;1.77;;
62509;SDS011;48558;48.242;11.654;2023-04-03T02:01:15;2.47;;;2.28;;
62509;SDS011;48558;48.242;11.654;2023-04-03T02:05:28;2.50;;;2.30;;
62509;SDS011;48558;48.242;11.654;2023-04-03T02:09:40;2.15;;;1.95;;
62509;SDS011;48558;48.242;11.654;2023-04-03T02:13:53;2.53;;;2.33;;
62509;SDS011;48558;48.242;11.654;2023-04-03T02:18:06;3.65;;;2.75;;
62509;SDS011;48558;48.242;11.654;2023-04-03T02:22:19;2.25;;;2.08;;
62509;SDS011;48558;48.242;11.654;2023-04-03T02:26:32;2.35;;;2.15;;
62509;SDS011;48558;48.242;11.654;2023-04-03T02:30:54;2.15;;;1.95;;
62509;SDS011;48558;48.242;11.654;2023-04-03T02:35:17;2.03;;;1.90;;
62509;SDS011;48558;48.242;11.654;2023-04-03T02:39:29;2.97;;;2.00;;
62509;SDS011;48558;48.242;11.654;2023-04-03T02:43:42;2.22;;;2.00;;
62509;SDS011;48558;48.242;11.654;2023-04-03T02:47:54;2.13;;;1.92;;
62509;SDS011;48558;48.242;11.654;2023-04-03T02:52:07;2.20;;;1.98;;
62509;SDS011;48558;48.242;11.654;2023-04-03T02:56:19;2.15;;;2.00;;
62509;SDS011;48558;48.242;11.654;2023-04-03T03:00:33;1.80;;;1.70;;
62509;SDS011;48558;48.242;11.654;2023-04-03T03:04:47;1.88;;;1.77;;
62509;SDS011;48558;48.242;11.654;2023-04-03T03:08:59;1.98;;;1.88;;
62509;SDS011;48558;48.242;11.654;2023-04-03T03:13:12;8.35;;;2.05;;
62509;SDS011;48558;48.242;11.654;2023-04-03T03:21:22;4.03;;;2.05;;
62509;SDS011;48558;48.242;11.654;2023-04-03T03:25:38;3.22;;;2.08;;
62509;SDS011;48558;48.242;11.654;2023-04-03T03:29:59;1.98;;;1.88;;
62509;SDS011;48558;48.242;11.654;2023-04-03T03:34:11;1.85;;;1.75;;
62509;SDS011;48558;48.242;11.654;2023-04-03T03:38:25;1.92;;;1.75;;
62509;SDS011;48558;48.242;11.654;2023-04-03T03:42:38;2.40;;;2.05;;
62509;SDS011;48558;48.242;11.654;2023-04-03T03:46:51;2.10;;;2.00;;
62509;SDS011;48558;48.242;11.654;2023-04-03T03:51:03;2.25;;;2.05;;
62509;SDS011;48558;48.242;11.654;2023-04-03T03:55:16;1.52;;;1.42;;
62509;SDS011;48558;48.242;11.654;2023-04-03T03:59:29;2.17;;;1.98;;
62509;SDS011;48558;48.242;11.654;2023-04-03T04:03:41;1.55;;;1.45;;
62509;SDS011;48558;48.242;11.654;2023-04-03T04:07:54;3.67;;;2.25;;
62509;SDS011;48558;48.242;11.654;2023-04-03T04:12:06;6.00;;;2.20;;
62509;SDS011;48558;48.242;11.654;2023-04-03T04:16:19;2.63;;;2.33;;
62509;SDS011;48558;48.242;11.654;2023-04-03T04:20:31;4.50;;;2.05;;
62509;SDS011;48558;48.242;11.654;2023-04-03T04:24:44;2.85;;;2.10;;
62509;SDS011;48558;48.242;11.654;2023-04-03T04:28:57;2.40;;;2.20;;
62509;SDS011;48558;48.242;11.654;2023-04-03T04:33:09;4.00;;;2.25;;
62509;SDS011;48558;48.242;11.654;2023-04-03T04:37:22;2.00;;;1.88;;
62509;SDS011;48558;48.242;11.654;2023-04-03T04:41:41;2.03;;;1.90;;
62509;SDS011;48558;48.242;11.654;2023-04-03T04:46:00;2.17;;;1.98;;
62509;SDS011;48558;48.242;11.654;2023-04-03T04:50:17;2.83;;;2.25;;
62509;SDS011;48558;48.242;11.654;2023-04-03T04:54:30;2.53;;;2.25;;
62509;SDS011;48558;48.242;11.654;2023-04-03T04:58:43;2.78;;;1.92;;
62509;SDS011;48558;48.242;11.654;2023-04-03T05:02:56;3.10;;;2.72;;
62509;SDS011;48558;48.242;11.654;2023-04-03T05:07:08;2.30;;;2.05;;
62509;SDS011;48558;48.242;11.654;2023-04-03T05:11:21;2.13;;;1.95;;
62509;SDS011;48558;48.242;11.654;2023-04-03T05:15:42;2.45;;;1.77;;
62509;SDS011;48558;48.242;11.654;2023-04-03T05:19:54;3.45;;;2.50;;
62509;SDS011;48558;48.242;11.654;2023-04-03T05:24:07;3.33;;;2.50;;
62509;SDS011;48558;48.242;11.654;2023-04-03T05:28:21;7.38;;;2.53;;
62509;SDS011;48558;48.242;11.654;2023-04-03T05:32:34;2.05;;;1.95;;
62509;SDS011;48558;48.242;11.654;2023-04-03T05:36:46;2.53;;;2.00;;
62509;SDS011;48558;48.242;11.654;2023-04-03T05:40:59;3.03;;;2.50;;
62509;SDS011;48558;48.242;11.654;2023-04-03T05:45:11;2.70;;;2.50;;
62509;SDS011;48558;48.242;11.654;2023-04-03T05:49:24;3.08;;;2.40;;
62509;SDS011;48558;48.242;11.654;2023-04-03T05:53:37;2.85;;;2.30;;
62509;SDS011;48558;48.242;11.654;2023-04-03T05:57:49;2.67;;;2.47;;
62509;SDS011;48558;48.242;11.654;2023-04-03T06:02:02;4.00;;;2.53;;
62509;SDS011;48558;48.242;11.654;2023-04-03T06:06:15;5.10;;;2.40;;
62509;SDS011;48558;48.242;11.654;2023-04-03T06:10:27;1.80;;;1.70;;
62509;SDS011;48558;48.242;11.654;2023-04-03T06:14:40;2.40;;;2.20;;
62509;SDS011;48558;48.242;11.654;2023-04-03T06:18:52;2.90;;;2.20;;
62509;SDS011;48558;48.242;11.654;2023-04-03T06:23:05;2.60;;;2.40;;
62509;SDS011;48558;48.242;11.654;2023-04-03T06:27:18;3.72;;;2.85;;
62509;SDS011;48558;48.242;11.654;2023-04-03T06:31:31;1.60;;;1.50;;
62509;SDS011;48558;48.242;11.654;2023-04-03T06:35:44;3.00;;;2.70;;
62509;SDS011;48558;48.242;11.654;2023-04-03T06:39:57;4.30;;;2.47;;
62509;SDS011;48558;48.242;11.654;2023-04-03T06:44:12;2.90;;;2.60;;
62509;SDS011;48558;48.242;11.654;2023-04-03T06:48:27;3.53;;;2.97;;
62509;SDS011;48558;48.242;11.654;2023-04-03T06:52:40;3.33;;;2.70;;
62509;SDS011;48558;48.242;11.654;2023-04-03T06:56:53;4.10;;;2.72;;
62509;SDS011;48558;48.242;11.654;2023-04-03T07:01:05;7.45;;;2.92;;
62509;SDS011;48558;48.242;11.654;2023-04-03T07:05:18;3.97;;;2.92;;
62509;SDS011;48558;48.242;11.654;2023-04-03T07:09:31;2.80;;;2.60;;
62509;SDS011;48558;48.242;11.654;2023-04-03T07:13:44;4.53;;;3.22;;
62509;SDS011;48558;48.242;11.654;2023-04-03T07:17:57;3.08;;;2.70;;
62509;SDS011;48558;48.242;11.654;2023-04-03T07:22:18;7.13;;;3.15;;
62509;SDS011;48558;48.242;11.654;2023-04-03T07:26:31;5.55;;;3.13;;
62509;SDS011;48558;48.242;11.654;2023-04-03T07:30:44;3.75;;;2.70;;
62509;SDS011;48558;48.242;11.654;2023-04-03T07:35:04;3.47;;;2.88;;
62509;SDS011;48558;48.242;11.654;2023-04-03T07:39:17;4.15;;;2.70;;
62509;SDS011;48558;48.242;11.654;2023-04-03T07:43:29;4.72;;;3.38;;
62509;SDS011;48558;48.242;11.654;2023-04-03T07:47:52;3.47;;;2.58;;
62509;SDS011;48558;48.242;11.654;2023-04-03T07:52:05;4.35;;;3.05;;
62509;SDS011;48558;48.242;11.654;2023-04-03T07:56:29;4.03;;;3.50;;
62509;SDS011;48558;48.242;11.654;2023-04-03T08:00:42;4.43;;;2.92;;
62509;SDS011;48558;48.242;11.654;2023-04-03T08:04:55;4.22;;;3.03;;
62509;SDS011;48558;48.242;11.654;2023-04-03T08:09:09;7.32;;;3.15;;
62509;SDS011;48558;48.242;11.654;2023-04-03T08:13:22;6.10;;;3.45;;
62509;SDS011;48558;48.242;11.654;2023-04-03T08:17:34;6.88;;;3.22;;
62509;SDS011;48558;48.242;11.654;2023-04-03T08:21:47;2.55;;;2.35;;
62509;SDS011;48558;48.242;11.654;2023-04-03T08:26:04;5.30;;;2.75;;
62509;SDS011;48558;48.242;11.654;2023-04-03T08:30:22;6.10;;;3.65;;
62509;SDS011;48558;48.242;11.654;2023-04-03T08:34:35;6.43;;;3.60;;
62509;SDS011;48558;48.242;11.654;2023-04-03T08:38:49;3.88;;;3.10;;
62509;SDS011;48558;48.242;11.654;2023-04-03T08:57:20;3.65;;;3.35;;
62509;SDS011;48558;48.242;11.654;2023-04-03T09:01:42;2.28;;;2.13;;
62509;SDS011;48558;48.242;11.654;2023-04-03T09:10:18;3.08;;;2.88;;
62509;SDS011;48558;48.242;11.654;2023-04-03T09:14:41;1.33;;;1.30;;
62509;SDS011;48558;48.242;11.654;2023-04-03T09:24:05;2.80;;;2.60;;
62509;SDS011;48558;48.242;11.654;2023-04-03T09:28:19;3.28;;;3.00;;
62509;SDS011;48558;48.242;11.654;2023-04-03T09:32:33;2.63;;;1.90;;
62509;SDS011;48558;48.242;11.654;2023-04-03T09:36:52;2.83;;;2.50;;
62509;SDS011;48558;48.242;11.654;2023-04-03T09:45:30;2.20;;;2.03;;
62509;SDS011;48558;48.242;11.654;2023-04-03T09:49:45;2.95;;;2.75;;
62509;SDS011;48558;48.242;11.654;2023-04-03T09:54:49;6.03;;;3.08;;
62509;SDS011;48558;48.242;11.654;2023-04-03T09:59:07;4.63;;;2.60;;
62509;SDS011;48558;48.242;11.654;2023-04-03T10:03:28;2.80;;;2.60;;
62509;SDS011;48558;48.242;11.654;2023-04-03T10:08:39;3.05;;;2.75;;
62509;SDS011;48558;48.242;11.654;2023-04-03T10:12:36;1.60;;;1.50;;
62509;SDS011;48558;48.242;11.654;2023-04-03T10:16:51;1.75;;;1.60;;
62509;SDS011;48558;48.242;11.654;2023-04-03T10:30:29;2.15;;;1.25;;
62509;SDS011;48558;48.242;11.654;2023-04-03T10:35:33;0.88;;;0.80;;
62509;SDS011;48558;48.242;11.654;2023-04-03T10:44:20;2.80;;;1.60;;
62509;SDS011;48558;48.242;11.654;2023-04-03T10:53:45;1.52;;;1.40;;
62509;SDS011;48558;48.242;11.654;2023-04-03T10:58:18;1.35;;;1.27;;
62509;SDS011;48558;48.242;11.654;2023-04-03T11:02:48;6.25;;;2.08;;
62509;SDS011;48558;48.242;11.654;2023-04-03T11:12:02;1.40;;;1.30;;
62509;SDS011;48558;48.242;11.654;2023-04-03T11:16:30;1.42;;;1.33;;
62509;SDS011;48558;48.242;11.654;2023-04-03T11:25:51;1.00;;;1.00;;
62509;SDS011;48558;48.242;11.654;2023-04-03T11:30:08;1.67;;;1.20;;
62509;SDS011;48558;48.242;11.654;2023-04-03T11:34:46;2.45;;;1.30;;
62509;SDS011;48558;48.242;11.654;2023-04-03T11:39:25;2.17;;;1.30;;
62509;SDS011;48558;48.242;11.654;2023-04-03T11:43:40;1.52;;;1.40;;
62509;SDS011;48558;48.242;11.654;2023-04-03T11:56:54;1.27;;;1.17;;
62509;SDS011;48558;48.242;11.654;2023-04-03T12:01:07;1.00;;;1.00;;
62509;SDS011;48558;48.242;11.654;2023-04-03T12:05:29;1.48;;;1.15;;
62509;SDS011;48558;48.242;11.654;2023-04-03T12:23:07;2.17;;;1.30;;
62509;SDS011;48558;48.242;11.654;2023-04-03T12:27:40;1.50;;;1.40;;
62509;SDS011;48558;48.242;11.654;2023-04-03T12:36:57;3.13;;;1.33;;
62509;SDS011;48558;48.242;11.654;2023-04-03T12:41:36;1.63;;;1.20;;
62509;SDS011;48558;48.242;11.654;2023-04-03T12:50:24;1.75;;;1.40;;
62509;SDS011;48558;48.242;11.654;2023-04-03T12:54:42;1.00;;;0.90;;
62509;SDS011;48558;48.242;11.654;2023-04-03T12:59:15;1.75;;;1.00;;
62509;SDS011;48558;48.242;11.654;2023-04-03T13:03:48;1.20;;;1.10;;
62509;SDS011;48558;48.242;11.654;2023-04-03T13:08:05;2.53;;;0.75;;
62509;SDS011;48558;48.242;11.654;2023-04-03T13:12:26;2.47;;;1.30;;
62509;SDS011;48558;48.242;11.654;2023-04-03T13:16:49;1.48;;;1.30;;
62509;SDS011;48558;48.242;11.654;2023-04-03T13:21:13;1.98;;;0.95;;
62509;SDS011;48558;48.242;11.654;2023-04-03T13:25:43;2.08;;;1.25;;
62509;SDS011;48558;48.242;11.654;2023-04-03T13:29:58;1.67;;;0.90;;
62509;SDS011;48558;48.242;11.654;2023-04-03T13:34:15;1.55;;;1.10;;
62509;SDS011;48558;48.242;11.654;2023-04-03T13:38:31;1.20;;;0.93;;
62509;SDS011;48558;48.242;11.654;2023-04-03T13:42:45;1.05;;;1.05;;
62509;SDS011;48558;48.242;11.654;2023-04-03T13:47:01;1.48;;;1.05;;
62509;SDS011;48558;48.242;11.654;2023-04-03T13:51:29;1.33;;;1.10;;
62509;SDS011;48558;48.242;11.654;2023-04-03T13:56:44;1.15;;;1.08;;
62509;SDS011;48558;48.242;11.654;2023-04-03T14:00:36;1.88;;;1.15;;
62509;SDS011;48558;48.242;11.654;2023-04-03T14:05:00;1.48;;;1.30;;
62509;SDS011;48558;48.242;11.654;2023-04-03T14:09:16;1.33;;;1.10;;
62509;SDS011;48558;48.242;11.654;2023-04-03T14:13:30;1.10;;;1.10;;
62509;SDS011;48558;48.242;11.654;2023-04-03T14:17:44;1.77;;;1.40;;
62509;SDS011;48558;48.242;11.654;2023-04-03T14:22:11;1.30;;;1.20;;
62509;SDS011;48558;48.242;11.654;2023-04-03T14:26:30;5.82;;;1.02;;
62509;SDS011;48558;48.242;11.654;2023-04-03T14:30:43;0.80;;;0.80;;
62509;SDS011;48558;48.242;11.654;2023-04-03T14:34:57;2.05;;;1.00;;
62509;SDS011;48558;48.242;11.654;2023-04-03T14:39:11;0.80;;;0.80;;
62509;SDS011;48558;48.242;11.654;2023-04-03T14:47:44;0.60;;;0.60;;
62509;SDS011;48558;48.242;11.654;2023-04-03T14:52:01;0.93;;;0.93;;
62509;SDS011;48558;48.242;11.654;2023-04-03T14:56:14;1.23;;;1.10;;
62509;SDS011;48558;48.242;11.654;2023-04-03T15:00:34;1.08;;;0.98;;
62509;SDS011;48558;48.242;11.654;2023-04-03T15:04:47;1.63;;;1.10;;
62509;SDS011;48558;48.242;11.654;2023-04-03T15:09:03;0.90;;;0.90;;
62509;SDS011;48558;48.242;11.654;2023-04-03T15:13:15;1.30;;;1.20;;
62509;SDS011;48558;48.242;11.654;2023-04-03T15:17:28;2.22;;;1.02;;
62509;SDS011;48558;48.242;11.654;2023-04-03T15:21:40;1.40;;;1.30;;
62509;SDS011;48558;48.242;11.654;2023-04-03T15:25:53;1.23;;;1.00;;
62509;SDS011;48558;48.242;11.654;2023-04-03T15:30:07;1.58;;;1.30;;
62509;SDS011;48558;48.242;11.654;2023-04-03T15:34:26;1.30;;;1.20;;
62509;SDS011;48558;48.242;11.654;2023-04-03T15:38:38;1.70;;;1.15;;
62509;SDS011;48558;48.242;11.654;2023-04-03T15:42:58;1.50;;;0.70;;
62509;SDS011;48558;48.242;11.654;2023-04-03T15:47:10;0.55;;;0.55;;
62509;SDS011;48558;48.242;11.654;2023-04-03T15:51:23;2.10;;;1.10;;
62509;SDS011;48558;48.242;11.654;2023-04-03T15:55:36;1.58;;;0.90;;
62509;SDS011;48558;48.242;11.654;2023-04-03T15:59:51;0.80;;;0.80;;
62509;SDS011;48558;48.242;11.654;2023-04-03T16:04:03;0.85;;;0.85;;
62509;SDS011;48558;48.242;11.654;2023-04-03T16:08:18;5.65;;;1.08;;
62509;SDS011;48558;48.242;11.654;2023-04-03T16:12:31;1.48;;;1.10;;
62509;SDS011;48558;48.242;11.654;2023-04-03T16:16:43;1.63;;;1.20;;
62509;SDS011;48558;48.242;11.654;2023-04-03T16:20:56;1.13;;;1.02;;
62509;SDS011;48558;48.242;11.654;2023-04-03T16:25:09;1.05;;;1.00;;
62509;SDS011;48558;48.242;11.654;2023-04-03T16:29:23;1.55;;;0.80;;
62509;SDS011;48558;48.242;11.654;2023-04-03T16:33:45;2.55;;;1.20;;
62509;SDS011;48558;48.242;11.654;2023-04-03T16:37:58;2.30;;;1.30;;
62509;SDS011;48558;48.242;11.654;2023-04-03T16:42:10;1.63;;;1.20;;
62509;SDS011;48558;48.242;11.654;2023-04-03T16:46:23;3.28;;;1.00;;
62509;SDS011;48558;48.242;11.654;2023-04-03T16:50:36;1.20;;;1.10;;
62509;SDS011;48558;48.242;11.654;2023-04-03T16:54:49;1.90;;;1.30;;
62509;SDS011;48558;48.242;11.654;2023-04-03T16:59:01;1.38;;;1.27;;
62509;SDS011;48558;48.242;11.654;2023-04-03T17:03:14;1.77;;;0.93;;
62509;SDS011;48558;48.242;11.654;2023-04-03T17:07:27;1.33;;;1.23;;
62509;SDS011;48558;48.242;11.654;2023-04-03T17:11:49;1.48;;;1.38;;
62509;SDS011;48558;48.242;11.654;2023-04-03T17:16:02;3.08;;;2.33;;
62509;SDS011;48558;48.242;11.654;2023-04-03T17:20:18;0.77;;;0.73;;
62509;SDS011;48558;48.242;11.654;2023-04-03T17:24:30;1.20;;;1.13;;
62509;SDS011;48558;48.242;11.654;2023-04-03T17:28:43;0.77;;;0.77;;
62509;SDS011;48558;48.242;11.654;2023-04-03T17:32:57;0.88;;;0.88;;
62509;SDS011;48558;48.242;11.654;2023-04-03T17:37:09;2.10;;;1.42;;
62509;SDS011;48558;48.242;11.654;2023-04-03T17:41:31;1.00;;;0.70;;
62509;SDS011;48558;48.242;11.654;2023-04-03T17:45:43;1.33;;;1.25;;
62509;SDS011;48558;48.242;11.654;2023-04-03T17:49:56;0.68;;;0.50;;
62509;SDS011;48558;48.242;11.654;2023-04-03T17:54:09;1.95;;;1.10;;
62509;SDS011;48558;48.242;11.654;2023-04-03T17:58:21;1.23;;;1.10;;
62509;SDS011;48558;48.242;11.654;2023-04-03T18:02:34;1.90;;;1.25;;
62509;SDS011;48558;48.242;11.654;2023-04-03T18:06:50;3.28;;;1.25;;
62509;SDS011;48558;48.242;11.654;2023-04-03T18:11:04;1.73;;;1.48;;
62509;SDS011;48558;48.242;11.654;2023-04-03T18:15:17;1.50;;;1.40;;
62509;SDS011;48558;48.242;11.654;2023-04-03T18:19:41;1.30;;;1.20;;
62509;SDS011;48558;48.242;11.654;2023-04-03T18:23:53;1.10;;;1.00;;
62509;SDS011;48558;48.242;11.654;2023-04-03T18:28:07;1.48;;;1.38;;
62509;SDS011;48558;48.242;11.654;2023-04-03T18:32:20;0.60;;;0.60;;
62509;SDS011;48558;48.242;11.654;2023-04-03T18:36:34;1.02;;;0.93;;
62509;SDS011;48558;48.242;11.654;2023-04-03T18:40:46;1.35;;;0.73;;
62509;SDS011;48558;48.242;11.654;2023-04-03T18:45:01;0.95;;;0.88;;
62509;SDS011;48558;48.242;11.654;2023-04-03T18:49:20;4.18;;;1.50;;
62509;SDS011;48558;48.242;11.654;2023-04-03T18:53:33;1.55;;;1.20;;
62509;SDS011;48558;48.242;11.654;2023-04-03T18:57:46;0.90;;;0.85;;
62509;SDS011;48558;48.242;11.654;2023-04-03T19:02:00;1.77;;;1.45;;
62509;SDS011;48558;48.242;11.654;2023-04-03T19:06:19;0.93;;;0.93;;
62509;SDS011;48558;48.242;11.654;2023-04-03T19:10:32;2.20;;;1.40;;
62509;SDS011;48558;48.242;11.654;2023-04-03T19:14:45;2.25;;;1.67;;
62509;SDS011;48558;48.242;11.654;2023-04-03T19:18:57;1.70;;;1.40;;
62509;SDS011;48558;48.242;11.654;2023-04-03T19:23:11;0.73;;;0.73;;
62509;SDS011;48558;48.242;11.654;2023-04-03T19:27:34;1.52;;;1.42;;
62509;SDS011;48558;48.242;11.654;2023-04-03T19:31:48;0.40;;;0.40;;
62509;SDS011;48558;48.242;11.654;2023-04-03T19:36:03;4.65;;;1.60;;
62509;SDS011;48558;48.242;11.654;2023-04-03T19:40:16;1.17;;;1.10;;
62509;SDS011;48558;48.242;11.654;2023-04-03T19:44:30;2.83;;;1.40;;
62509;SDS011;48558;48.242;11.654;2023-04-03T19:48:47;2.00;;;1.27;;
62509;SDS011;48558;48.242;11.654;2023-04-03T19:53:00;3.35;;;1.35;;
62509;SDS011;48558;48.242;11.654;2023-04-03T19:57:13;0.90;;;0.90;;
62509;SDS011;48558;48.242;11.654;2023-04-03T20:01:26;1.48;;;1.38;;
62509;SDS011;48558;48.242;11.654;2023-04-03T20:05:39;1.42;;;0.95;;
62509;SDS011;48558;48.242;11.654;2023-04-03T20:10:01;1.15;;;1.10;;
62509;SDS011;48558;48.242;11.654;2023-04-03T20:14:15;1.98;;;1.20;;
62509;SDS011;48558;48.242;11.654;2023-04-03T20:18:29;1.23;;;1.15;;
62509;SDS011;48558;48.242;11.654;2023-04-03T20:22:42;4.65;;;1.15;;
62509;SDS011;48558;48.242;11.654;2023-04-03T20:26:54;1.25;;;1.15;;
62509;SDS011;48558;48.242;11.654;2023-04-03T20:31:08;3.42;;;1.52;;
62509;SDS011;48558;48.242;11.654;2023-04-03T20:35:21;1.52;;;1.42;;
62509;SDS011;48558;48.242;11.654;2023-04-03T20:39:33;2.30;;;1.30;;
62509;SDS011;48558;48.242;11.654;2023-04-03T20:43:46;1.85;;;1.27;;
62509;SDS011;48558;48.242;11.654;2023-04-03T20:47:59;1.00;;;0.90;;
62509;SDS011;48558;48.242;11.654;2023-04-03T20:52:24;1.05;;;1.05;;
62509;SDS011;48558;48.242;11.654;2023-04-03T20:56:37;1.90;;;1.70;;
62509;SDS011;48558;48.242;11.654;2023-04-03T21:00:49;3.70;;;1.10;;
62509;SDS011;48558;48.242;11.654;2023-04-03T21:05:02;1.33;;;1.08;;
62509;SDS011;48558;48.242;11.654;2023-04-03T21:19:32;1.65;;;1.25;;
62509;SDS011;48558;48.242;11.654;2023-04-03T21:23:54;1.10;;;1.00;;
62509;SDS011;48558;48.242;11.654;2023-04-03T21:28:07;1.30;;;1.23;;
62509;SDS011;48558;48.242;11.654;2023-04-03T21:32:20;1.38;;;1.27;;
62509;SDS011;48558;48.242;11.654;2023-04-03T21:36:39;2.28;;;1.40;;
62509;SDS011;48558;48.242;11.654;2023-04-03T21:45:08;1.42;;;1.33;;
62509;SDS011;48558;48.242;11.654;2023-04-03T21:49:21;2.70;;;1.30;;
62509;SDS011;48558;48.242;11.654;2023-04-03T21:53:35;1.23;;;1.13;;
62509;SDS011;48558;48.242;11.654;2023-04-03T21:57:51;0.88;;;0.88;;
62509;SDS011;48558;48.242;11.654;2023-04-03T22:02:04;4.60;;;1.92;;
62509;SDS011;48558;48.242;11.654;2023-04-03T22:06:17;3.13;;;1.27;;
62509;SDS011;48558;48.242;11.654;2023-04-03T22:10:29;1.80;;;1.25;;
62509;SDS011;48558;48.242;11.654;2023-04-03T22:14:42;2.45;;;1.42;;
62509;SDS011;48558;48.242;11.654;2023-04-03T22:18:56;2.20;;;1.40;;
62509;SDS011;48558;48.242;11.654;2023-04-03T22:23:12;3.05;;;1.27;;
62509;SDS011;48558;48.242;11.654;2023-04-03T22:27:24;1.15;;;1.13;;
62509;SDS011;48558;48.242;11.654;2023-04-03T22:31:37;1.27;;;1.17;;
62509;SDS011;48558;48.242;11.654;2023-04-03T22:35:52;5.60;;;0.88;;
62509;SDS011;48558;48.242;11.654;2023-04-03T22:40:05;1.77;;;1.58;;
62509;SDS011;48558;48.242;11.654;2023-04-03T22:44:18;2.60;;;1.33;;
62509;SDS011;48558;48.242;11.654;2023-04-03T22:48:31;1.40;;;1.27;;
62509;SDS011;48558;48.242;11.654;2023-04-03T22:52:44;1.25;;;1.00;;
62509;SDS011;48558;48.242;11.654;2023-04-03T22:56:57;2.38;;;1.50;;
62509;SDS011;48558;48.242;11.654;2023-04-03T23:01:10;1.50;;;1.40;;
62509;SDS011;48558;48.242;11.654;2023-04-03T23:05:24;1.65;;;1.55;;
62509;SDS011;48558;48.242;11.654;2023-04-03T23:09:37;1.33;;;1.23;;
62509;SDS011;48558;48.242;11.654;2023-04-03T23:13:49;1.95;;;1.30;;
62509;SDS011;48558;48.242;11.654;2023-04-03T23:18:11;2.17;;;1.80;;
62509;SDS011;48558;48.242;11.654;2023-04-03T23:22:23;2.17;;;1.48;;
62509;SDS011;48558;48.242;11.654;2023-04-03T23:26:36;1.50;;;1.40;;
62509;SDS011;48558;48.242;11.654;2023-04-03T23:30:48;1.17;;;1.17;;
62509;SDS011;48558;48.242;11.654;2023-04-03T23:35:02;1.20;;;1.10;;
62509;SDS011;48558;48.242;11.654;2023-04-03T23:39:14;3.85;;;1.60;;
62509;SDS011;48558;48.242;11.654;2023-04-03T23:43:30;4.32;;;1.20;;
62509;SDS011;48558;48.242;11.654;2023-04-03T23:47:43;4.00;;;1.10;;
62509;SDS011;48558;48.242;11.654;2023-04-03T23:51:55;2.88;;;1.67;;
62509;SDS011;48558;48.242;11.654;2023-04-03T23:56:08;0.80;;;0.80;;
